Time,TemperatureF,DewpointF,PressureIn,WindDirection,WindDirectionDegrees,WindSpeedMPH,WindSpeedGustMPH,Humidity,HourlyPrecipIn,Conditions,Clouds,dailyrainin,SoftwareType,DateUTC
2013-01-21 00:06:00,15.0,7.0,29.80,West,270,8.0,9.0,73,0.00,,,0.00,TxWx,2013-01-21 05:06:00,
2013-01-21 00:15:00,15.0,7.0,29.80,West,270,6.0,11.0,74,0.00,,,0.00,TxWx,2013-01-21 05:15:00,
2013-01-21 00:20:00,15.0,7.0,29.80,SW,225,8.0,9.0,74,0.00,,,0.00,TxWx,2013-01-21 05:20:00,
2013-01-21 00:27:00,15.0,7.0,29.80,WSW,247,13.0,13.0,75,0.00,,,0.00,TxWx,2013-01-21 05:27:00,
2013-01-21 00:35:00,15.0,8.0,29.80,WSW,247,4.0,5.0,75,0.00,,,0.00,TxWx,2013-01-21 05:35:00,
2013-01-21 00:40:00,14.0,7.0,29.80,West,270,10.0,10.0,76,0.00,,,0.00,TxWx,2013-01-21 05:40:00,
2013-01-21 00:45:00,15.0,8.0,29.81,West,270,6.0,8.0,76,0.00,,,0.00,TxWx,2013-01-21 05:45:00,
2013-01-21 00:50:00,14.0,7.0,29.81,SSW,202,6.0,8.0,76,0.00,,,0.00,TxWx,2013-01-21 05:50:00,
2013-01-21 00:55:00,14.0,7.0,29.81,SW,225,6.0,6.0,76,0.00,,,0.00,TxWx,2013-01-21 05:55:00,
2013-01-21 01:01:00,14.0,7.0,29.81,West,270,6.0,7.0,77,0.00,,,0.00,TxWx,2013-01-21 06:01:00,
2013-01-21 01:06:00,14.0,7.0,29.81,WNW,292,6.0,6.0,78,0.00,,,0.00,TxWx,2013-01-21 06:06:00,
2013-01-21 01:11:00,14.0,7.0,29.81,SW,225,8.0,8.0,78,0.00,,,0.00,TxWx,2013-01-21 06:11:00,
2013-01-21 01:16:00,14.0,7.0,29.81,WNW,292,8.0,10.0,76,0.00,,,0.00,TxWx,2013-01-21 06:16:00,
2013-01-21 01:21:00,14.0,7.0,29.81,West,270,11.0,11.0,76,0.00,,,0.00,TxWx,2013-01-21 06:21:00,
2013-01-21 01:26:00,14.0,6.0,29.81,West,270,8.0,11.0,75,0.00,,,0.00,TxWx,2013-01-21 06:26:00,
2013-01-21 01:31:00,14.0,6.0,29.82,West,270,9.0,9.0,73,0.00,,,0.00,TxWx,2013-01-21 06:31:00,
2013-01-21 01:36:00,14.0,5.0,29.82,WSW,247,7.0,11.0,72,0.00,,,0.00,TxWx,2013-01-21 06:36:00,
2013-01-21 01:41:00,14.0,5.0,29.82,West,270,10.0,11.0,72,0.00,,,0.00,TxWx,2013-01-21 06:41:00,
2013-01-21 01:46:00,14.0,5.0,29.82,WNW,292,9.0,11.0,72,0.00,,,0.00,TxWx,2013-01-21 06:46:00,
2013-01-21 01:51:00,14.0,5.0,29.82,West,270,10.0,10.0,71,0.00,,,0.00,TxWx,2013-01-21 06:51:00,
2013-01-21 01:56:00,14.0,5.0,29.82,WSW,247,11.0,15.0,71,0.00,,,0.00,TxWx,2013-01-21 06:56:00,
2013-01-21 02:02:00,14.0,5.0,29.83,West,270,7.0,10.0,70,0.00,,,0.00,TxWx,2013-01-21 07:02:00,
2013-01-21 02:07:00,14.0,5.0,29.82,WSW,247,6.0,8.0,70,0.00,,,0.00,TxWx,2013-01-21 07:07:00,
2013-01-21 02:12:00,14.0,5.0,29.83,West,270,8.0,9.0,70,0.00,,,0.00,TxWx,2013-01-21 07:12:00,
2013-01-21 02:17:00,14.0,5.0,29.83,SW,225,5.0,6.0,70,0.00,,,0.00,TxWx,2013-01-21 07:17:00,
2013-01-21 02:22:00,14.0,5.0,29.83,WSW,247,5.0,5.0,71,0.00,,,0.00,TxWx,2013-01-21 07:22:00,
2013-01-21 02:27:00,14.0,5.0,29.83,WSW,247,4.0,5.0,71,0.00,,,0.00,TxWx,2013-01-21 07:27:00,
2013-01-21 02:32:00,14.0,5.0,29.83,WSW,247,6.0,7.0,71,0.00,,,0.00,TxWx,2013-01-21 07:32:00,
2013-01-21 02:41:00,14.0,5.0,29.82,West,270,5.0,5.0,70,0.00,,,0.00,TxWx,2013-01-21 07:41:00,
2013-01-21 02:46:00,14.0,5.0,29.82,West,270,6.0,6.0,70,0.00,,,0.00,TxWx,2013-01-21 07:46:00,
2013-01-21 02:51:00,14.0,5.0,29.82,WNW,292,9.0,9.0,71,0.00,,,0.00,TxWx,2013-01-21 07:51:00,
2013-01-21 02:56:00,14.0,5.0,29.82,West,270,8.0,10.0,70,0.00,,,0.00,TxWx,2013-01-21 07:56:00,
2013-01-21 03:01:00,14.0,5.0,29.83,West,270,9.0,9.0,69,0.00,,,0.00,TxWx,2013-01-21 08:01:00,
2013-01-21 03:06:00,14.0,5.0,29.83,West,270,8.0,8.0,70,0.00,,,0.00,TxWx,2013-01-21 08:06:00,
2013-01-21 03:11:00,14.0,5.0,29.83,West,270,8.0,9.0,70,0.00,,,0.00,TxWx,2013-01-21 08:11:00,
2013-01-21 03:16:00,14.0,5.0,29.83,WNW,292,5.0,5.0,70,0.00,,,0.00,TxWx,2013-01-21 08:16:00,
2013-01-21 03:22:00,14.0,5.0,29.83,SW,225,9.0,9.0,70,0.00,,,0.00,TxWx,2013-01-21 08:22:00,
2013-01-21 03:27:00,14.0,5.0,29.83,SW,225,5.0,8.0,70,0.00,,,0.00,TxWx,2013-01-21 08:27:00,
2013-01-21 03:32:00,13.0,5.0,29.83,WSW,247,7.0,8.0,70,0.00,,,0.00,TxWx,2013-01-21 08:32:00,
2013-01-21 03:41:00,14.0,5.0,29.83,West,270,5.0,5.0,70,0.00,,,0.00,TxWx,2013-01-21 08:41:00,
2013-01-21 03:46:00,13.0,4.0,29.82,NW,315,8.0,9.0,70,0.00,,,0.00,TxWx,2013-01-21 08:46:00,
2013-01-21 03:51:00,14.0,5.0,29.82,WSW,247,5.0,6.0,69,0.00,,,0.00,TxWx,2013-01-21 08:51:00,
2013-01-21 03:56:00,14.0,4.0,29.81,WNW,292,8.0,8.0,68,0.00,,,0.00,TxWx,2013-01-21 08:56:00,
2013-01-21 04:02:00,13.0,3.0,29.82,West,270,6.0,11.0,67,0.00,,,0.00,TxWx,2013-01-21 09:02:00,
2013-01-21 04:07:00,13.0,3.0,29.82,West,270,7.0,11.0,67,0.00,,,0.00,TxWx,2013-01-21 09:07:00,
2013-01-21 04:12:00,13.0,3.0,29.82,WNW,292,11.0,11.0,66,0.00,,,0.00,TxWx,2013-01-21 09:12:00,
2013-01-21 04:17:00,13.0,3.0,29.82,WSW,247,8.0,8.0,66,0.00,,,0.00,TxWx,2013-01-21 09:17:00,
2013-01-21 04:22:00,14.0,4.0,29.82,WSW,247,11.0,11.0,66,0.00,,,0.00,TxWx,2013-01-21 09:22:00,
2013-01-21 04:27:00,13.0,2.0,29.82,WSW,247,7.0,9.0,65,0.00,,,0.00,TxWx,2013-01-21 09:27:00,
2013-01-21 04:32:00,13.0,2.0,29.82,WSW,247,5.0,8.0,65,0.00,,,0.00,TxWx,2013-01-21 09:32:00,
2013-01-21 04:37:00,14.0,2.0,29.82,WSW,247,5.0,8.0,65,0.00,,,0.00,TxWx,2013-01-21 09:37:00,
2013-01-21 04:44:00,13.0,2.0,29.82,WSW,247,7.0,8.0,64,0.00,,,0.00,TxWx,2013-01-21 09:44:00,
2013-01-21 04:49:00,13.0,2.0,29.82,West,270,5.0,6.0,64,0.00,,,0.00,TxWx,2013-01-21 09:49:00,
2013-01-21 04:54:00,13.0,2.0,29.82,WSW,247,8.0,10.0,64,0.00,,,0.00,TxWx,2013-01-21 09:54:00,
2013-01-21 05:00:00,13.0,2.0,29.82,WSW,247,6.0,6.0,64,0.00,,,0.00,TxWx,2013-01-21 10:00:00,
2013-01-21 05:05:00,13.0,2.0,29.82,West,270,5.0,6.0,64,0.00,,,0.00,TxWx,2013-01-21 10:05:00,
2013-01-21 05:11:00,13.0,2.0,29.83,WSW,247,2.0,3.0,65,0.00,,,0.00,TxWx,2013-01-21 10:11:00,
2013-01-21 05:16:00,14.0,3.0,29.83,WSW,247,4.0,4.0,65,0.00,,,0.00,TxWx,2013-01-21 10:16:00,
2013-01-21 05:21:00,14.0,3.0,29.83,West,270,5.0,6.0,65,0.00,,,0.00,TxWx,2013-01-21 10:21:00,
2013-01-21 05:26:00,14.0,4.0,29.83,WSW,247,2.0,2.0,66,0.00,,,0.00,TxWx,2013-01-21 10:26:00,
2013-01-21 05:31:00,14.0,4.0,29.83,SSW,202,3.0,3.0,66,0.00,,,0.00,TxWx,2013-01-21 10:31:00,
2013-01-21 05:36:00,14.0,4.0,29.84,WSW,247,4.0,4.0,68,0.00,,,0.00,TxWx,2013-01-21 10:36:00,
2013-01-21 05:41:00,14.0,5.0,29.83,SW,225,7.0,7.0,71,0.00,,,0.00,TxWx,2013-01-21 10:41:00,
2013-01-21 05:46:00,14.0,6.0,29.84,SW,225,5.0,6.0,72,0.00,,,0.00,TxWx,2013-01-21 10:46:00,
2013-01-21 05:52:00,14.0,6.0,29.83,SW,225,5.0,6.0,74,0.00,,,0.00,TxWx,2013-01-21 10:52:00,
2013-01-21 05:57:00,14.0,7.0,29.83,SSW,202,3.0,3.0,75,0.00,,,0.00,TxWx,2013-01-21 10:57:00,
2013-01-21 06:02:00,14.0,7.0,29.83,SSW,202,7.0,7.0,76,0.00,,,0.00,TxWx,2013-01-21 11:02:00,
2013-01-21 06:07:00,14.0,7.0,29.83,SE,135,4.0,4.0,78,0.00,,,0.00,TxWx,2013-01-21 11:07:00,
2013-01-21 06:12:00,14.0,8.0,29.83,SSW,202,5.0,5.0,79,0.00,,,0.00,TxWx,2013-01-21 11:12:00,
2013-01-21 06:20:00,14.0,8.0,29.84,South,180,1.0,1.0,81,0.00,,,0.00,TxWx,2013-01-21 11:20:00,
2013-01-21 06:25:00,14.0,8.0,29.83,SSE,157,2.0,2.0,81,0.00,,,0.00,TxWx,2013-01-21 11:25:00,
2013-01-21 06:31:00,13.0,7.0,29.83,SSE,157,3.0,3.0,81,0.00,,,0.00,TxWx,2013-01-21 11:31:00,
2013-01-21 06:36:00,14.0,8.0,29.83,SE,135,2.0,3.0,81,0.00,,,0.00,TxWx,2013-01-21 11:36:00,
2013-01-21 06:41:00,14.0,8.0,29.83,SSE,157,3.0,3.0,81,0.00,,,0.00,TxWx,2013-01-21 11:41:00,
2013-01-21 06:46:00,14.0,8.0,29.82,South,180,2.0,2.0,82,0.00,,,0.00,TxWx,2013-01-21 11:46:00,
2013-01-21 06:51:00,13.0,8.0,29.83,ESE,112,2.0,3.0,82,0.00,,,0.00,TxWx,2013-01-21 11:51:00,
2013-01-21 06:56:00,13.0,8.0,29.83,South,180,3.0,3.0,82,0.00,,,0.00,TxWx,2013-01-21 11:56:00,
2013-01-21 07:01:00,13.0,8.0,29.83,SE,135,1.0,2.0,82,0.00,,,0.00,TxWx,2013-01-21 12:01:00,
2013-01-21 07:07:00,13.0,8.0,29.83,SSE,157,2.0,2.0,82,0.00,,,0.00,TxWx,2013-01-21 12:07:00,
2013-01-21 07:12:00,13.0,8.0,29.84,SSW,202,3.0,3.0,83,0.00,,,0.00,TxWx,2013-01-21 12:12:00,
2013-01-21 07:17:00,14.0,9.0,29.83,South,180,3.0,3.0,83,0.00,,,0.00,TxWx,2013-01-21 12:17:00,
2013-01-21 07:22:00,13.0,8.0,29.83,South,180,2.0,3.0,83,0.00,,,0.00,TxWx,2013-01-21 12:22:00,
2013-01-21 07:27:00,13.0,8.0,29.83,SSE,157,1.0,2.0,83,0.00,,,0.00,TxWx,2013-01-21 12:27:00,
2013-01-21 07:32:00,13.0,8.0,29.83,SE,135,1.0,1.0,83,0.00,,,0.00,TxWx,2013-01-21 12:32:00,
2013-01-21 07:37:00,13.0,8.0,29.83,SSE,157,0.0,0.0,83,0.00,,,0.00,TxWx,2013-01-21 12:37:00,
2013-01-21 07:42:00,13.0,8.0,29.83,SSW,202,2.0,2.0,83,0.00,,,0.00,TxWx,2013-01-21 12:42:00,
2013-01-21 07:47:00,13.0,8.0,29.83,SSW,202,2.0,3.0,83,0.00,,,0.00,TxWx,2013-01-21 12:47:00,
2013-01-21 07:52:00,13.0,8.0,29.83,WSW,247,1.0,1.0,82,0.00,,,0.00,TxWx,2013-01-21 12:52:00,
2013-01-21 07:58:00,13.0,8.0,29.83,SW,225,1.0,2.0,82,0.00,,,0.00,TxWx,2013-01-21 12:58:00,
2013-01-21 08:03:00,13.0,8.0,29.83,West,270,2.0,2.0,82,0.00,,,0.00,TxWx,2013-01-21 13:03:00,
2013-01-21 08:08:00,13.0,8.0,29.83,SW,225,1.0,1.0,82,0.00,,,0.00,TxWx,2013-01-21 13:08:00,
2013-01-21 08:13:00,13.0,7.0,29.84,SSW,202,3.0,3.0,82,0.00,,,0.00,TxWx,2013-01-21 13:13:00,
2013-01-21 08:18:00,13.0,7.0,29.84,SW,225,3.0,3.0,82,0.00,,,0.00,TxWx,2013-01-21 13:18:00,
2013-01-21 08:23:00,13.0,7.0,29.84,SW,225,2.0,2.0,82,0.00,,,0.00,TxWx,2013-01-21 13:23:00,
2013-01-21 08:28:00,13.0,8.0,29.84,SW,225,1.0,1.0,82,0.00,,,0.00,TxWx,2013-01-21 13:28:00,
2013-01-21 08:33:00,13.0,8.0,29.84,SSW,202,1.0,2.0,82,0.00,,,0.00,TxWx,2013-01-21 13:33:00,
2013-01-21 08:38:00,13.0,8.0,29.84,SSW,202,1.0,1.0,82,0.00,,,0.00,TxWx,2013-01-21 13:38:00,
2013-01-21 08:43:00,14.0,9.0,29.83,South,180,0.0,1.0,82,0.00,,,0.00,TxWx,2013-01-21 13:43:00,
2013-01-21 08:49:00,13.0,7.0,29.83,SW,225,2.0,2.0,82,0.00,,,0.00,TxWx,2013-01-21 13:49:00,
2013-01-21 08:54:00,14.0,8.0,29.83,South,180,1.0,1.0,82,0.00,,,0.00,TxWx,2013-01-21 13:54:00,
2013-01-21 08:59:00,14.0,8.0,29.83,South,180,1.0,1.0,81,0.00,,,0.00,TxWx,2013-01-21 13:59:00,
2013-01-21 09:04:00,14.0,8.0,29.83,South,180,1.0,2.0,81,0.00,,,0.00,TxWx,2013-01-21 14:04:00,
2013-01-21 09:09:00,14.0,8.0,29.83,SSW,202,1.0,1.0,81,0.00,,,0.00,TxWx,2013-01-21 14:09:00,
2013-01-21 09:14:00,14.0,8.0,29.83,South,180,0.0,1.0,80,0.00,,,0.00,TxWx,2013-01-21 14:14:00,
2013-01-21 09:19:00,14.0,8.0,29.84,SSW,202,3.0,3.0,80,0.00,,,0.00,TxWx,2013-01-21 14:19:00,
2013-01-21 09:24:00,14.0,8.0,29.83,SSE,157,3.0,3.0,80,0.00,,,0.00,TxWx,2013-01-21 14:24:00,
2013-01-21 09:29:00,14.0,8.0,29.83,SSE,157,1.0,1.0,80,0.00,,,0.00,TxWx,2013-01-21 14:29:00,
2013-01-21 09:34:00,14.0,9.0,29.83,ESE,112,2.0,2.0,80,0.00,,,0.00,TxWx,2013-01-21 14:34:00,
2013-01-21 09:39:00,14.0,8.0,29.83,SE,135,2.0,2.0,79,0.00,,,0.00,TxWx,2013-01-21 14:39:00,
2013-01-21 09:44:00,15.0,9.0,29.83,SSE,157,1.0,1.0,79,0.00,,,0.00,TxWx,2013-01-21 14:44:00,
2013-01-21 09:49:00,15.0,8.0,29.82,ESE,112,4.0,4.0,78,0.00,,,0.00,TxWx,2013-01-21 14:49:00,
2013-01-21 09:55:00,15.0,8.0,29.81,SSE,157,3.0,3.0,77,0.00,,,0.00,TxWx,2013-01-21 14:55:00,
2013-01-21 10:00:00,15.0,8.0,29.82,SE,135,3.0,5.0,77,0.00,,,0.00,TxWx,2013-01-21 15:00:00,
2013-01-21 10:05:00,16.0,9.0,29.82,SSE,157,1.0,2.0,76,0.00,,,0.00,TxWx,2013-01-21 15:05:00,
2013-01-21 10:10:00,16.0,8.0,29.82,SSE,157,1.0,2.0,74,0.00,,,0.00,TxWx,2013-01-21 15:10:00,
2013-01-21 10:15:00,16.0,8.0,29.82,SSE,157,6.0,6.0,73,0.00,,,0.00,TxWx,2013-01-21 15:15:00,
2013-01-21 10:20:00,16.0,8.0,29.81,South,180,4.0,4.0,73,0.00,,,0.00,TxWx,2013-01-21 15:20:00,
2013-01-21 10:25:00,16.0,7.0,29.82,SSW,202,3.0,3.0,71,0.00,,,0.00,TxWx,2013-01-21 15:25:00,
2013-01-21 10:30:00,16.0,7.0,29.82,SSE,157,3.0,5.0,71,0.00,,,0.00,TxWx,2013-01-21 15:30:00,
2013-01-21 10:35:00,16.0,7.0,29.82,ESE,112,3.0,3.0,70,0.00,,,0.00,TxWx,2013-01-21 15:35:00,
2013-01-21 10:40:00,16.0,7.0,29.82,SW,225,5.0,6.0,70,0.00,,,0.00,TxWx,2013-01-21 15:40:00,
2013-01-21 10:45:00,16.0,7.0,29.82,SSE,157,5.0,5.0,70,0.00,,,0.00,TxWx,2013-01-21 15:45:00,
2013-01-21 10:50:00,16.0,7.0,29.81,SW,225,3.0,6.0,69,0.00,,,0.00,TxWx,2013-01-21 15:50:00,
2013-01-21 10:56:00,16.0,6.0,29.81,SW,225,4.0,6.0,68,0.00,,,0.00,TxWx,2013-01-21 15:56:00,
2013-01-21 11:01:00,16.0,6.0,29.81,SW,225,5.0,5.0,68,0.00,,,0.00,TxWx,2013-01-21 16:01:00,
2013-01-21 11:06:00,16.0,6.0,29.80,SW,225,4.0,5.0,68,0.00,,,0.00,TxWx,2013-01-21 16:06:00,
2013-01-21 11:11:00,16.0,6.0,29.80,SSW,202,7.0,8.0,68,0.00,,,0.00,TxWx,2013-01-21 16:11:00,
2013-01-21 11:16:00,16.0,6.0,29.79,South,180,3.0,3.0,67,0.00,,,0.00,TxWx,2013-01-21 16:16:00,
2013-01-21 11:21:00,16.0,6.0,29.79,SW,225,5.0,6.0,67,0.00,,,0.00,TxWx,2013-01-21 16:21:00,
2013-01-21 11:26:00,16.0,6.0,29.79,SSW,202,5.0,5.0,66,0.00,,,0.00,TxWx,2013-01-21 16:26:00,
2013-01-21 11:31:00,17.0,7.0,29.79,SSW,202,3.0,3.0,67,0.00,,,0.00,TxWx,2013-01-21 16:31:00,
2013-01-21 11:36:00,16.0,5.0,29.78,SSW,202,5.0,7.0,65,0.00,,,0.00,TxWx,2013-01-21 16:36:00,
2013-01-21 11:41:00,17.0,6.0,29.78,SW,225,7.0,7.0,65,0.00,,,0.00,TxWx,2013-01-21 16:41:00,
2013-01-21 11:46:00,17.0,6.0,29.77,SSW,202,3.0,5.0,64,0.00,,,0.00,TxWx,2013-01-21 16:46:00,
2013-01-21 11:52:00,16.0,5.0,29.77,South,180,2.0,3.0,64,0.00,,,0.00,TxWx,2013-01-21 16:52:00,
2013-01-21 11:57:00,17.0,6.0,29.77,SSW,202,4.0,6.0,64,0.00,,,0.00,TxWx,2013-01-21 16:57:00,
2013-01-21 12:02:00,17.0,6.0,29.76,SSE,157,4.0,5.0,65,0.00,,,0.00,TxWx,2013-01-21 17:02:00,
2013-01-21 12:07:00,17.0,6.0,29.76,SSE,157,5.0,6.0,65,0.00,,,0.00,TxWx,2013-01-21 17:07:00,
2013-01-21 12:12:00,17.0,6.0,29.76,SSW,202,6.0,7.0,64,0.00,,,0.00,TxWx,2013-01-21 17:12:00,
2013-01-21 12:17:00,17.0,6.0,29.75,South,180,6.0,7.0,64,0.00,,,0.00,TxWx,2013-01-21 17:17:00,
2013-01-21 12:22:00,17.0,6.0,29.75,SW,225,5.0,5.0,65,0.00,,,0.00,TxWx,2013-01-21 17:22:00,
2013-01-21 12:27:00,18.0,7.0,29.74,South,180,5.0,5.0,64,0.00,,,0.00,TxWx,2013-01-21 17:27:00,
2013-01-21 12:32:00,18.0,7.0,29.74,SSW,202,6.0,8.0,63,0.00,,,0.00,TxWx,2013-01-21 17:32:00,
2013-01-21 12:37:00,18.0,7.0,29.74,South,180,7.0,7.0,64,0.00,,,0.00,TxWx,2013-01-21 17:37:00,
2013-01-21 12:43:00,18.0,6.0,29.74,South,180,4.0,4.0,62,0.00,,,0.00,TxWx,2013-01-21 17:43:00,
2013-01-21 12:48:00,18.0,6.0,29.73,SSW,202,6.0,8.0,62,0.00,,,0.00,TxWx,2013-01-21 17:48:00,
2013-01-21 12:53:00,18.0,6.0,29.73,SSE,157,8.0,10.0,62,0.00,,,0.00,TxWx,2013-01-21 17:53:00,
2013-01-21 12:58:00,18.0,7.0,29.73,SSE,157,8.0,8.0,63,0.00,,,0.00,TxWx,2013-01-21 17:58:00,
2013-01-21 13:03:00,18.0,6.0,29.73,ESE,112,9.0,9.0,62,0.00,,,0.00,TxWx,2013-01-21 18:03:00,
2013-01-21 13:08:00,18.0,7.0,29.73,SE,135,3.0,5.0,62,0.00,,,0.00,TxWx,2013-01-21 18:08:00,
2013-01-21 13:13:00,18.0,6.0,29.73,SSE,157,5.0,8.0,62,0.00,,,0.00,TxWx,2013-01-21 18:13:00,
2013-01-21 13:20:00,19.0,7.0,29.73,SSW,202,6.0,8.0,63,0.00,,,0.00,TxWx,2013-01-21 18:20:00,
2013-01-21 13:25:00,19.0,7.0,29.73,ESE,112,8.0,8.0,62,0.00,,,0.00,TxWx,2013-01-21 18:25:00,
2013-01-21 13:30:00,19.0,7.0,29.72,SSW,202,5.0,6.0,62,0.00,,,0.00,TxWx,2013-01-21 18:30:00,
2013-01-21 13:36:00,19.0,7.0,29.72,ESE,112,8.0,8.0,62,0.00,,,0.00,TxWx,2013-01-21 18:36:00,
2013-01-21 13:41:00,19.0,7.0,29.72,ESE,112,4.0,6.0,62,0.00,,,0.00,TxWx,2013-01-21 18:41:00,
2013-01-21 13:46:00,19.0,7.0,29.71,SE,135,5.0,6.0,62,0.00,,,0.00,TxWx,2013-01-21 18:46:00,
2013-01-21 13:51:00,19.0,7.0,29.71,SSE,157,5.0,8.0,62,0.00,,,0.00,TxWx,2013-01-21 18:51:00,
2013-01-21 13:56:00,19.0,7.0,29.71,SSE,157,7.0,8.0,61,0.00,,,0.00,TxWx,2013-01-21 18:56:00,
2013-01-21 13:59:00,15.0,13.0,29.57,West,270,6.0,7.0,98,0.00,,,0.00,TxWx,2013-01-21 18:59:00,
2013-01-21 14:00:00,15.0,14.0,29.56,WSW,247,6.0,9.0,98,0.00,,,0.00,TxWx,2013-01-21 19:00:00,
2013-01-21 14:01:00,19.0,7.0,29.71,SE,135,5.0,6.0,61,0.00,,,0.00,TxWx,2013-01-21 19:01:00,
2013-01-21 14:02:00,14.0,13.0,29.56,WSW,247,4.0,8.0,98,0.00,,,0.00,TxWx,2013-01-21 19:02:00,
2013-01-21 14:03:00,15.0,14.0,29.56,SW,225,6.0,6.0,98,0.00,,,0.00,TxWx,2013-01-21 19:03:00,
2013-01-21 14:06:00,19.0,6.0,29.71,ESE,112,5.0,7.0,60,0.00,,,0.00,TxWx,2013-01-21 19:06:00,
2013-01-21 14:11:00,19.0,6.0,29.71,ESE,112,9.0,9.0,60,0.00,,,0.00,TxWx,2013-01-21 19:11:00,
2013-01-21 14:16:00,19.0,6.0,29.71,SSE,157,7.0,8.0,59,0.00,,,0.00,TxWx,2013-01-21 19:16:00,
2013-01-21 14:21:00,19.0,6.0,29.70,SE,135,6.0,6.0,59,0.00,,,0.00,TxWx,2013-01-21 19:21:00,
2013-01-21 14:27:00,19.0,7.0,29.70,South,180,5.0,8.0,59,0.00,,,0.00,TxWx,2013-01-21 19:27:00,
2013-01-21 14:28:00,14.0,13.0,29.56,WSW,247,3.0,4.0,98,0.00,,,0.00,TxWx,2013-01-21 19:28:00,
2013-01-21 14:29:00,14.0,13.0,29.56,West,270,5.0,6.0,98,0.00,,,0.00,TxWx,2013-01-21 19:29:00,
2013-01-21 14:30:00,14.0,13.0,29.56,West,270,5.0,5.0,98,0.00,,,0.00,TxWx,2013-01-21 19:30:00,
2013-01-21 14:32:00,20.0,7.0,29.69,SSE,157,4.0,5.0,59,0.00,,,0.00,TxWx,2013-01-21 19:32:00,
2013-01-21 14:37:00,20.0,7.0,29.70,SE,135,5.0,5.0,59,0.00,,,0.00,TxWx,2013-01-21 19:37:00,
2013-01-21 14:42:00,20.0,7.0,29.69,SE,135,6.0,8.0,59,0.00,,,0.00,TxWx,2013-01-21 19:42:00,
2013-01-21 14:47:00,19.0,6.0,29.69,ESE,112,8.0,9.0,60,0.00,,,0.00,TxWx,2013-01-21 19:47:00,
2013-01-21 14:52:00,19.0,7.0,29.69,SE,135,5.0,6.0,61,0.00,,,0.00,TxWx,2013-01-21 19:52:00,
2013-01-21 14:57:00,20.0,8.0,29.69,ESE,112,8.0,10.0,61,0.00,,,0.00,TxWx,2013-01-21 19:57:00,
2013-01-21 15:02:00,20.0,8.0,29.69,SE,135,4.0,5.0,61,0.00,,,0.00,TxWx,2013-01-21 20:02:00,
2013-01-21 15:07:00,20.0,8.0,29.68,SE,135,10.0,10.0,62,0.00,,,0.00,TxWx,2013-01-21 20:07:00,
2013-01-21 15:12:00,20.0,8.0,29.69,South,180,3.0,6.0,61,0.00,,,0.00,TxWx,2013-01-21 20:12:00,
2013-01-21 15:18:00,20.0,8.0,29.69,SSW,202,8.0,10.0,61,0.00,,,0.00,TxWx,2013-01-21 20:18:00,
2013-01-21 15:23:00,20.0,8.0,29.69,South,180,8.0,8.0,63,0.00,,,0.00,TxWx,2013-01-21 20:23:00,
2013-01-21 15:28:00,20.0,8.0,29.69,SE,135,7.0,9.0,63,0.00,,,0.00,TxWx,2013-01-21 20:28:00,
2013-01-21 15:33:00,19.0,8.0,29.69,SSE,157,7.0,7.0,64,0.00,,,0.00,TxWx,2013-01-21 20:33:00,
2013-01-21 15:38:00,19.0,8.0,29.69,SSE,157,8.0,8.0,65,0.00,,,0.00,TxWx,2013-01-21 20:38:00,
2013-01-21 15:43:00,19.0,9.0,29.69,SE,135,12.0,12.0,67,0.00,,,0.00,TxWx,2013-01-21 20:43:00,
2013-01-21 15:48:00,19.0,9.0,29.68,South,180,5.0,5.0,68,0.00,,,0.00,TxWx,2013-01-21 20:48:00,
2013-01-21 15:53:00,19.0,9.0,29.68,SE,135,8.0,10.0,68,0.00,,,0.00,TxWx,2013-01-21 20:53:00,
2013-01-21 15:58:00,19.0,10.0,29.68,ESE,112,8.0,10.0,70,0.00,,,0.00,TxWx,2013-01-21 20:58:00,
2013-01-21 16:04:00,19.0,10.0,29.67,SE,135,5.0,6.0,71,0.00,,,0.00,TxWx,2013-01-21 21:04:00,
2013-01-21 16:09:00,19.0,10.0,29.67,SE,135,10.0,10.0,72,0.00,,,0.00,TxWx,2013-01-21 21:09:00,
2013-01-21 16:14:00,19.0,11.0,29.67,SE,135,7.0,8.0,73,0.00,,,0.00,TxWx,2013-01-21 21:14:00,
2013-01-21 16:19:00,18.0,10.0,29.67,SE,135,9.0,10.0,74,0.00,,,0.00,TxWx,2013-01-21 21:19:00,
2013-01-21 16:24:00,19.0,10.0,29.67,ESE,112,10.0,10.0,75,0.00,,,0.00,TxWx,2013-01-21 21:24:00,
2013-01-21 16:29:00,19.0,11.0,29.66,SE,135,5.0,5.0,75,0.00,,,0.00,TxWx,2013-01-21 21:29:00,
2013-01-21 16:34:00,19.0,11.0,29.66,ESE,112,5.0,6.0,75,0.00,,,0.00,TxWx,2013-01-21 21:34:00,
2013-01-21 16:39:00,19.0,11.0,29.66,East,90,8.0,8.0,75,0.00,,,0.00,TxWx,2013-01-21 21:39:00,
2013-01-21 16:44:00,19.0,11.0,29.66,ESE,112,10.0,10.0,76,0.00,,,0.00,TxWx,2013-01-21 21:44:00,
2013-01-21 16:49:00,18.0,11.0,29.66,ESE,112,5.0,5.0,76,0.00,,,0.00,TxWx,2013-01-21 21:49:00,
2013-01-21 16:55:00,19.0,12.0,29.66,ESE,112,5.0,5.0,77,0.00,,,0.00,TxWx,2013-01-21 21:55:00,
2013-01-21 17:00:00,18.0,11.0,29.66,East,90,6.0,7.0,77,0.00,,,0.00,TxWx,2013-01-21 22:00:00,
2013-01-21 17:05:00,18.0,11.0,29.66,ESE,112,5.0,6.0,78,0.00,,,0.00,TxWx,2013-01-21 22:05:00,
2013-01-21 17:10:00,18.0,11.0,29.66,SE,135,6.0,9.0,79,0.00,,,0.00,TxWx,2013-01-21 22:10:00,
2013-01-21 17:15:00,18.0,12.0,29.66,ESE,112,5.0,6.0,80,0.00,,,0.00,TxWx,2013-01-21 22:15:00,
2013-01-21 17:20:00,18.0,12.0,29.65,SE,135,5.0,7.0,81,0.00,,,0.00,TxWx,2013-01-21 22:20:00,
2013-01-21 17:25:00,18.0,12.0,29.65,ESE,112,8.0,9.0,82,0.00,,,0.00,TxWx,2013-01-21 22:25:00,
2013-01-21 17:30:00,18.0,13.0,29.65,ESE,112,5.0,5.0,83,0.00,,,0.00,TxWx,2013-01-21 22:30:00,
2013-01-21 17:35:00,18.0,13.0,29.66,ESE,112,8.0,8.0,83,0.00,,,0.00,TxWx,2013-01-21 22:35:00,
2013-01-21 17:40:00,18.0,13.0,29.66,ESE,112,5.0,6.0,84,0.00,,,0.00,TxWx,2013-01-21 22:40:00,
2013-01-21 17:42:00,12.0,8.0,29.59,West,270,9.0,10.0,88,0.00,,,0.00,TxWx,2013-01-21 22:42:00,
2013-01-21 17:43:00,12.0,7.0,29.59,WSW,247,10.0,11.0,88,0.00,,,0.00,TxWx,2013-01-21 22:43:00,
2013-01-21 17:44:00,11.0,7.0,29.59,WSW,247,6.0,9.0,88,0.00,,,0.00,TxWx,2013-01-21 22:44:00,
2013-01-21 17:45:00,18.0,13.0,29.66,ESE,112,8.0,8.0,85,0.00,,,0.00,TxWx,2013-01-21 22:45:00,
2013-01-21 17:46:00,11.0,7.0,29.59,SW,225,14.0,14.0,88,0.00,,,0.00,TxWx,2013-01-21 22:46:00,
2013-01-21 17:51:00,18.0,14.0,29.65,SE,135,7.0,8.0,86,0.00,,,0.00,TxWx,2013-01-21 22:51:00,
2013-01-21 17:56:00,18.0,14.0,29.65,SSE,157,3.0,4.0,87,0.00,,,0.00,TxWx,2013-01-21 22:56:00,
2013-01-21 18:01:00,17.0,13.0,29.65,ESE,112,8.0,8.0,88,0.00,,,0.00,TxWx,2013-01-21 23:01:00,
2013-01-21 18:06:00,17.0,13.0,29.65,ESE,112,6.0,6.0,89,0.00,,,0.00,TxWx,2013-01-21 23:06:00,
2013-01-21 18:11:00,17.0,13.0,29.65,ESE,112,5.0,6.0,89,0.00,,,0.00,TxWx,2013-01-21 23:11:00,
2013-01-21 18:16:00,17.0,13.0,29.65,ESE,112,6.0,9.0,90,0.00,,,0.00,TxWx,2013-01-21 23:16:00,
2013-01-21 18:21:00,17.0,14.0,29.65,East,90,9.0,11.0,90,0.00,,,0.00,TxWx,2013-01-21 23:21:00,
2013-01-21 18:26:00,17.0,14.0,29.65,SE,135,10.0,10.0,91,0.00,,,0.00,TxWx,2013-01-21 23:26:00,
2013-01-21 18:31:00,17.0,14.0,29.65,SE,135,6.0,8.0,91,0.00,,,0.00,TxWx,2013-01-21 23:31:00,
2013-01-21 18:36:00,18.0,15.0,29.65,SE,135,5.0,5.0,92,0.00,,,0.00,TxWx,2013-01-21 23:36:00,
2013-01-21 18:42:00,18.0,15.0,29.65,SE,135,6.0,9.0,92,0.00,,,0.00,TxWx,2013-01-21 23:42:00,
2013-01-21 18:47:00,17.0,15.0,29.65,ESE,112,6.0,6.0,93,0.00,,,0.00,TxWx,2013-01-21 23:47:00,
2013-01-21 18:52:00,17.0,14.0,29.65,ESE,112,8.0,10.0,93,0.00,,,0.00,TxWx,2013-01-21 23:52:00,
2013-01-21 18:57:00,17.0,14.0,29.65,SE,135,5.0,5.0,94,0.00,,,0.00,TxWx,2013-01-21 23:57:00,
2013-01-21 19:02:00,17.0,15.0,29.65,ESE,112,6.0,8.0,94,0.00,,,0.00,TxWx,2013-01-22 00:02:00,
2013-01-21 19:07:00,17.0,15.0,29.65,ESE,112,8.0,9.0,94,0.00,,,0.00,TxWx,2013-01-22 00:07:00,
2013-01-21 19:12:00,17.0,15.0,29.65,SSE,157,4.0,5.0,95,0.00,,,0.00,TxWx,2013-01-22 00:12:00,
2013-01-21 19:17:00,17.0,16.0,29.65,ESE,112,9.0,10.0,95,0.00,,,0.00,TxWx,2013-01-22 00:17:00,
2013-01-21 19:22:00,18.0,16.0,29.65,SE,135,10.0,13.0,95,0.00,,,0.00,TxWx,2013-01-22 00:22:00,
2013-01-21 19:27:00,18.0,16.0,29.64,SE,135,9.0,10.0,95,0.00,,,0.00,TxWx,2013-01-22 00:27:00,
2013-01-21 19:32:00,18.0,16.0,29.65,SE,135,6.0,7.0,95,0.00,,,0.00,TxWx,2013-01-22 00:32:00,
2013-01-21 19:37:00,18.0,16.0,29.64,ESE,112,10.0,11.0,96,0.00,,,0.00,TxWx,2013-01-22 00:37:00,
2013-01-21 19:43:00,18.0,16.0,29.64,SE,135,10.0,11.0,95,0.00,,,0.00,TxWx,2013-01-22 00:43:00,
2013-01-21 19:48:00,18.0,16.0,29.64,SE,135,9.0,13.0,95,0.00,,,0.00,TxWx,2013-01-22 00:48:00,
2013-01-21 19:53:00,18.0,16.0,29.64,ESE,112,10.0,13.0,95,0.00,,,0.00,TxWx,2013-01-22 00:53:00,
2013-01-21 19:58:00,18.0,16.0,29.64,ESE,112,12.0,12.0,95,0.00,,,0.00,TxWx,2013-01-22 00:58:00,
2013-01-21 20:03:00,18.0,16.0,29.64,SE,135,8.0,8.0,95,0.00,,,0.00,TxWx,2013-01-22 01:03:00,
2013-01-21 20:08:00,18.0,16.0,29.63,ESE,112,15.0,15.0,95,0.00,,,0.00,TxWx,2013-01-22 01:08:00,
2013-01-21 20:13:00,18.0,16.0,29.63,ESE,112,10.0,13.0,95,0.00,,,0.00,TxWx,2013-01-22 01:13:00,
2013-01-21 20:16:00,10.0,1.0,29.64,SW,225,17.0,21.0,71,0.00,,,0.00,TxWx,2013-01-22 01:16:00,
2013-01-21 20:17:00,10.0,1.0,29.64,West,270,13.0,21.0,70,0.00,,,0.00,TxWx,2013-01-22 01:17:00,
2013-01-21 20:18:00,18.0,16.0,29.64,ESE,112,14.0,14.0,95,0.00,,,0.00,TxWx,2013-01-22 01:18:00,
2013-01-21 20:19:00,10.0,0.0,29.64,West,270,9.0,9.0,67,0.00,,,0.00,TxWx,2013-01-22 01:19:00,
2013-01-21 20:20:00,10.0,0.0,29.64,WSW,247,11.0,13.0,67,0.00,,,0.00,TxWx,2013-01-22 01:20:00,
2013-01-21 20:23:00,18.0,16.0,29.63,SSE,157,13.0,14.0,95,0.00,,,0.00,TxWx,2013-01-22 01:23:00,
2013-01-21 20:28:00,18.0,16.0,29.63,SE,135,9.0,10.0,95,0.00,,,0.00,TxWx,2013-01-22 01:28:00,
2013-01-21 20:30:00,10.0,-1.0,29.64,SW,225,10.0,10.0,64,0.00,,,0.00,TxWx,2013-01-22 01:30:00,
2013-01-21 20:31:00,10.0,-1.0,29.65,WSW,247,8.0,11.0,64,0.00,,,0.00,TxWx,2013-01-22 01:31:00,
2013-01-21 20:33:00,18.0,16.0,29.63,SE,135,10.0,11.0,95,0.00,,,0.00,TxWx,2013-01-22 01:33:00,
2013-01-21 20:39:00,18.0,16.0,29.63,SE,135,10.0,10.0,95,0.00,,,0.00,TxWx,2013-01-22 01:39:00,
2013-01-21 20:44:00,18.0,16.0,29.62,SE,135,6.0,8.0,94,0.00,,,0.00,TxWx,2013-01-22 01:44:00,
2013-01-21 20:49:00,18.0,16.0,29.62,SSE,157,8.0,10.0,94,0.00,,,0.00,TxWx,2013-01-22 01:49:00,
2013-01-21 20:54:00,18.0,15.0,29.62,SSE,157,13.0,13.0,94,0.00,,,0.00,TxWx,2013-01-22 01:54:00,
2013-01-21 20:59:00,18.0,15.0,29.62,ESE,112,8.0,11.0,93,0.00,,,0.00,TxWx,2013-01-22 01:59:00,
2013-01-21 21:04:00,17.0,14.0,29.61,SE,135,8.0,8.0,93,0.00,,,0.00,TxWx,2013-01-22 02:04:00,
2013-01-21 21:06:00,9.0,-4.0,29.66,West,270,5.0,5.0,57,0.00,,,0.00,TxWx,2013-01-22 02:06:00,
2013-01-21 21:07:00,9.0,-4.0,29.66,WNW,292,3.0,4.0,57,0.00,,,0.00,TxWx,2013-01-22 02:07:00,
2013-01-21 21:08:00,9.0,-4.0,29.66,SSW,202,3.0,5.0,57,0.00,,,0.00,TxWx,2013-01-22 02:08:00,
2013-01-21 21:09:00,17.0,14.0,29.61,ESE,112,11.0,11.0,93,0.00,,,0.00,TxWx,2013-01-22 02:09:00,
2013-01-21 21:14:00,17.0,14.0,29.61,ESE,112,11.0,11.0,93,0.00,,,0.00,TxWx,2013-01-22 02:14:00,
2013-01-21 21:19:00,17.0,14.0,29.61,ESE,112,10.0,12.0,94,0.00,,,0.00,TxWx,2013-01-22 02:19:00,
2013-01-21 21:24:00,17.0,14.0,29.61,SE,135,9.0,10.0,94,0.00,,,0.00,TxWx,2013-01-22 02:24:00,
2013-01-21 21:29:00,17.0,15.0,29.60,ESE,112,8.0,10.0,95,0.00,,,0.00,TxWx,2013-01-22 02:29:00,
2013-01-21 21:34:00,17.0,15.0,29.60,ESE,112,11.0,12.0,95,0.00,,,0.00,TxWx,2013-01-22 02:34:00,
2013-01-21 21:39:00,17.0,15.0,29.60,ESE,112,9.0,10.0,95,0.00,,,0.00,TxWx,2013-01-22 02:39:00,
2013-01-21 21:45:00,17.0,15.0,29.59,ESE,112,8.0,10.0,95,0.00,,,0.00,TxWx,2013-01-22 02:45:00,
2013-01-21 21:50:00,17.0,15.0,29.60,ESE,112,7.0,10.0,95,0.00,,,0.00,TxWx,2013-01-22 02:50:00,
2013-01-21 21:55:00,17.0,15.0,29.59,SE,135,9.0,10.0,95,0.00,,,0.00,TxWx,2013-01-22 02:55:00,
2013-01-21 22:00:00,17.0,15.0,29.59,SSE,157,8.0,10.0,95,0.00,,,0.00,TxWx,2013-01-22 03:00:00,
2013-01-21 22:01:00,8.0,-6.0,29.68,SW,225,6.0,7.0,55,0.00,,,0.00,TxWx,2013-01-22 03:01:00,
2013-01-21 22:02:00,9.0,-5.0,29.68,West,270,12.0,12.0,55,0.00,,,0.00,TxWx,2013-01-22 03:02:00,
2013-01-21 22:03:00,9.0,-5.0,29.68,WSW,247,11.0,13.0,55,0.00,,,0.00,TxWx,2013-01-22 03:03:00,
2013-01-21 22:04:00,9.0,-5.0,29.68,NW,315,10.0,13.0,55,0.00,,,0.00,TxWx,2013-01-22 03:04:00,
2013-01-21 22:05:00,18.0,16.0,29.59,SSE,157,5.0,6.0,95,0.00,,,0.00,TxWx,2013-01-22 03:05:00,
2013-01-21 22:10:00,17.0,15.0,29.59,SSE,157,7.0,7.0,94,0.00,,,0.00,TxWx,2013-01-22 03:10:00,
2013-01-21 22:15:00,18.0,15.0,29.59,SSW,202,9.0,9.0,94,0.00,,,0.00,TxWx,2013-01-22 03:15:00,
2013-01-21 22:20:00,18.0,15.0,29.58,SSW,202,8.0,8.0,94,0.00,,,0.00,TxWx,2013-01-22 03:20:00,
2013-01-21 22:25:00,17.0,14.0,29.58,SSW,202,10.0,11.0,93,0.00,,,0.00,TxWx,2013-01-22 03:25:00,
2013-01-21 22:30:00,17.0,15.0,29.57,SSW,202,6.0,8.0,94,0.00,,,0.00,TxWx,2013-01-22 03:30:00,
2013-01-21 22:35:00,18.0,16.0,29.57,SSW,202,9.0,10.0,94,0.00,,,0.00,TxWx,2013-01-22 03:35:00,
2013-01-21 22:41:00,17.0,15.0,29.57,SSW,202,6.0,7.0,95,0.00,,,0.00,TxWx,2013-01-22 03:41:00,
2013-01-21 22:46:00,17.0,15.0,29.57,SW,225,6.0,8.0,95,0.00,,,0.00,TxWx,2013-01-22 03:46:00,
2013-01-21 22:51:00,17.0,15.0,29.57,SW,225,8.0,8.0,96,0.00,,,0.00,TxWx,2013-01-22 03:51:00,
2013-01-21 22:56:00,17.0,15.0,29.57,WSW,247,6.0,8.0,96,0.00,,,0.00,TxWx,2013-01-22 03:56:00,
2013-01-21 23:01:00,17.0,15.0,29.57,WSW,247,4.0,5.0,96,0.00,,,0.00,TxWx,2013-01-22 04:01:00,
2013-01-21 23:06:00,17.0,15.0,29.57,SSW,202,8.0,8.0,96,0.00,,,0.00,TxWx,2013-01-22 04:06:00,
2013-01-21 23:11:00,16.0,14.0,29.57,SW,225,9.0,11.0,96,0.00,,,0.00,TxWx,2013-01-22 04:11:00,
2013-01-21 23:16:00,16.0,14.0,29.57,WSW,247,7.0,7.0,96,0.00,,,0.00,TxWx,2013-01-22 04:16:00,
2013-01-21 23:21:00,15.0,13.0,29.57,West,270,8.0,8.0,97,0.00,,,0.00,TxWx,2013-01-22 04:21:00,
2013-01-21 23:26:00,15.0,13.0,29.57,West,270,4.0,6.0,97,0.00,,,0.00,TxWx,2013-01-22 04:26:00,
2013-01-21 23:31:00,15.0,13.0,29.57,SW,225,11.0,11.0,97,0.00,,,0.00,TxWx,2013-01-22 04:31:00,
2013-01-21 23:36:00,15.0,13.0,29.57,West,270,5.0,8.0,97,0.00,,,0.00,TxWx,2013-01-22 04:36:00,
2013-01-21 23:42:00,15.0,13.0,29.57,SW,225,5.0,6.0,97,0.00,,,0.00,TxWx,2013-01-22 04:42:00,
2013-01-21 23:47:00,15.0,13.0,29.57,West,270,6.0,8.0,98,0.00,,,0.00,TxWx,2013-01-22 04:47:00,
2013-01-21 23:52:00,15.0,13.0,29.57,WSW,247,5.0,8.0,98,0.00,,,0.00,TxWx,2013-01-22 04:52:00,
2013-01-21 23:57:00,15.0,13.0,29.56,WSW,247,8.0,9.0,98,0.00,,,0.00,TxWx,2013-01-22 04:57:00,